F/V Moorea — FMIT — position and weather

sailwx.info

Track history (hours):
 
Tides and Currents Weather Stations Pressure Air Temp Water Temp Dewpoint Dewpoint Depression Visibility Wind Speed Wind Dir Waves Ship Positions

F/V Moorea

Last reported at 2017-Jun-26 22:30 UTC. Time now 2017-Jun-27 05:18 UTC.
Position N 46°50' W 003°36'.

Length 18 m.

Type: Fishing. MMSI: 228239900.

Date/timePositionNaut miles runAvg speedWind from/ knotsBaromVisibWave heightAir tempDewpointWater temp
2017-Jun-26 22:30N 46°50' W 003°36'2 3.5
2017-Jun-26 22:00N 46°51' W 003°34'2 3.8
2017-Jun-26 21:30N 46°50' W 003°32'2 4.4
2017-Jun-26 21:00N 46°50' W 003°29'2 3.9
2017-Jun-26 20:30N 46°50' W 003°26'2 4.1
2017-Jun-26 20:00N 46°50' W 003°23'1 2.8
2017-Jun-26 19:30N 46°50' W 003°21'2 4.2
2017-Jun-26 18:55N 46°52' W 003°22'2 2.0
2017-Jun-26 17:41N 46°51' W 003°19'7 3.5
2017-Jun-26 15:34N 46°58' W 003°23'0 4.5
2017-Jun-26 15:31N 46°58' W 003°23'3 0.5
2017-Jun-26 08:27N 46°55' W 003°22'3 1.6
2017-Jun-26 06:53N 46°52' W 003°22'2 4.1
2017-Jun-26 06:21N 46°52' W 003°19'6 8.6
2017-Jun-26 05:37N 46°55' W 003°11'1 9.5
2017-Jun-26 05:29N 46°56' W 003°10'5 9.5
2017-Jun-26 04:59N 46°59' W 003°04'5 9.4
2017-Jun-26 04:30N 47°02' W 002°59'6 9.0
2017-Jun-26 03:54N 47°06' W 002°53'4 9.0
2017-Jun-26 03:27N 47°08' W 002°49'4 9.1
2017-Jun-26 03:00N 47°11' W 002°44'4 8.5
2017-Jun-26 02:29N 47°14' W 002°39'5 9.0
2017-Jun-26 01:59N 47°17' W 002°35'3 5.5
2017-Jun-26 01:26N 47°18' W 002°31'0 0.0
2017-Jun-24 01:48N 47°18' W 002°31'0 0.0
2017-Jun-24 01:27N 47°18' W 002°31'66 4.5
2017-Jun-23 10:46N 46°13' W 002°47'2 1.1
2017-Jun-23 08:52N 46°11' W 002°47'1 3.7
2017-Jun-23 08:29N 46°12' W 002°46'2 2.2
2017-Jun-23 07:23N 46°11' W 002°49'1 3.7
2017-Jun-23 07:00N 46°12' W 002°48'3 4.2
2017-Jun-23 06:20N 46°14' W 002°46'2 4.4
2017-Jun-23 05:52N 46°15' W 002°43'3 3.4
2017-Jun-23 05:00N 46°18' W 002°42'2 3.4
2017-Jun-23 04:23N 46°20' W 002°41'18 7.4
2017-Jun-23 01:57N 46°24' W 002°15'4 8.4
2017-Jun-23 01:30N 46°25' W 002°10'4 8.1
2017-Jun-23 00:59N 46°26' W 002°04'4 8.2
2017-Jun-23 00:31N 46°27' W 001°59'4 8.2
2017-Jun-23 00:00N 46°28' W 001°53'4 8.1
2017-Jun-22 23:30N 46°29' W 001°47'1 2.6
2017-Jun-22 23:01N 46°30' W 001°48'0 0.0
2017-Jun-22 22:30N 46°30' W 001°48'2 3.7
2017-Jun-22 22:01N 46°28' W 001°49'5 9.3
2017-Jun-22 21:30N 46°27' W 001°56'7 9.3
2017-Jun-22 20:48N 46°26' W 002°05'6 9.1
2017-Jun-22 20:09N 46°25' W 002°13'26 3.4
2017-Jun-22 12:23N 46°12' W 002°46'2 1.9
2017-Jun-22 11:25N 46°12' W 002°49'1 2.1
2017-Jun-22 10:57N 46°12' W 002°48'2 3.8
2017-Jun-22 10:25N 46°10' W 002°49'2 3.4
2017-Jun-22 09:56N 46°12' W 002°47'2 3.7
2017-Jun-22 09:30N 46°13' W 002°46'2 3.8
2017-Jun-22 08:59N 46°13' W 002°43'2 3.8
2017-Jun-22 08:28N 46°12' W 002°41'2 2.3
2017-Jun-22 07:31N 46°10' W 002°43'0 3.9
2017-Jun-22 07:26N 46°09' W 002°43'1 3.5
2017-Jun-22 07:00N 46°08' W 002°42'2 4.0
2017-Jun-22 06:28N 46°06' W 002°40'2 4.0
2017-Jun-22 06:00N 46°05' W 002°38'2 4.1
2017-Jun-22 05:29N 46°04' W 002°36'1 3.0
2017-Jun-22 05:00N 46°04' W 002°34'3 4.0
2017-Jun-22 04:12N 46°07' W 002°35'1 4.0
2017-Jun-22 03:54N 46°08' W 002°36'1 2.7
2017-Jun-22 03:30N 46°08' W 002°35'3 6.1
2017-Jun-22 03:00N 46°10' W 002°31'4 8.7
2017-Jun-22 02:30N 46°12' W 002°26'4 8.8
2017-Jun-22 02:00N 46°14' W 002°21'4 8.7
2017-Jun-22 01:30N 46°17' W 002°15'4 8.7
2017-Jun-22 01:00N 46°19' W 002°10'4 8.5
2017-Jun-22 00:30N 46°21' W 002°05'4 8.4
2017-Jun-22 00:01N 46°23' W 001°60'4 8.3
2017-Jun-21 23:30N 46°26' W 001°54'4 8.3
2017-Jun-21 23:00N 46°28' W 001°49'2 4.9
2017-Jun-21 22:31N 46°30' W 001°47'0 0.0
2017-Jun-21 22:00N 46°30' W 001°47'0 0.1
2017-Jun-21 21:30N 46°30' W 001°48'3 6.9
2017-Jun-21 21:00N 46°27' W 001°50'5 9.5
2017-Jun-21 20:31N 46°24' W 001°56'5 9.0
2017-Jun-21 20:00N 46°22' W 002°01'5 9.0
2017-Jun-21 19:29N 46°19' W 002°07'5 9.0
2017-Jun-21 18:57N 46°17' W 002°13'4 8.9
2017-Jun-21 18:29N 46°15' W 002°18'4 8.6
2017-Jun-21 18:00N 46°13' W 002°23'4 8.3
2017-Jun-21 17:31N 46°11' W 002°29'2 3.6
2017-Jun-21 17:00N 46°09' W 002°30'2 3.7
2017-Jun-21 16:30N 46°07' W 002°30'3 3.1
2017-Jun-21 15:24N 46°07' W 002°35'3 3.8
2017-Jun-21 14:41N 46°08' W 002°39'1 2.9
2017-Jun-21 14:27N 46°08' W 002°38'3 1.7
2017-Jun-21 12:47N 46°05' W 002°38'4 4.0
2017-Jun-21 11:52N 46°08' W 002°42'2 4.2
2017-Jun-21 11:22N 46°09' W 002°44'0 1.3
2017-Jun-21 11:00N 46°09' W 002°43'2 3.9
2017-Jun-21 10:29N 46°07' W 002°42'2 4.0
2017-Jun-21 10:00N 46°06' W 002°40'2 3.7
2017-Jun-21 09:28N 46°06' W 002°37'2 3.3
2017-Jun-21 08:59N 46°07' W 002°35'4 4.1
2017-Jun-21 08:06N 46°09' W 002°39'0 2.8
2017-Jun-21 07:58N 46°09' W 002°39'0 0.5
2017-Jun-21 07:13N 46°09' W 002°39'1 3.8
2017-Jun-21 07:00N 46°10' W 002°40'2 3.8
2017-Jun-21 06:30N 46°10' W 002°42'1 2.3
2017-Jun-21 05:59N 46°09' W 002°42'2 4.0
2017-Jun-21 05:25N 46°08' W 002°39'2 4.0
2017-Jun-21 05:00N 46°07' W 002°37'2 3.3
2017-Jun-21 04:30N 46°06' W 002°35'2 3.5
2017-Jun-21 03:49N 46°08' W 002°38'1 3.2
2017-Jun-21 03:30N 46°08' W 002°36'2 4.0
2017-Jun-21 03:00N 46°06' W 002°35'2 2.8
2017-Jun-21 02:16N 46°06' W 002°38'1 4.0
2017-Jun-21 02:00N 46°07' W 002°39'2 3.9
2017-Jun-21 01:30N 46°08' W 002°42'3 3.5
2017-Jun-21 00:45N 46°09' W 002°45'1 3.8
2017-Jun-21 00:31N 46°09' W 002°46'2 3.9
2017-Jun-21 00:00N 46°07' W 002°44'2 4.0
2017-Jun-20 23:30N 46°06' W 002°41'1 1.7
2017-Jun-20 23:00N 46°06' W 002°40'2 4.0
2017-Jun-20 22:30N 46°07' W 002°43'2 4.0
2017-Jun-20 21:56N 46°08' W 002°45'1 2.0
2017-Jun-20 21:29N 46°09' W 002°45'2 3.9
2017-Jun-20 21:01N 46°08' W 002°42'2 3.9
2017-Jun-20 20:31N 46°06' W 002°40'2 3.6
2017-Jun-20 20:00N 46°06' W 002°38'2 3.9
2017-Jun-20 19:30N 46°06' W 002°35'2 3.5
2017-Jun-20 18:59N 46°08' W 002°37'2 4.1
2017-Jun-20 18:31N 46°08' W 002°39'2 3.8
2017-Jun-20 17:56N 46°09' W 002°42'1 3.0
2017-Jun-20 17:30N 46°09' W 002°44'2 4.1
2017-Jun-20 17:00N 46°08' W 002°42'2 4.1
2017-Jun-20 16:31N 46°06' W 002°40'2 3.3
2017-Jun-20 16:00N 46°07' W 002°38'2 3.9
2017-Jun-20 15:30N 46°08' W 002°40'2 3.9
2017-Jun-20 14:59N 46°09' W 002°42'1 1.4
2017-Jun-20 14:30N 46°10' W 002°42'4 3.9
2017-Jun-20 13:30N 46°07' W 002°39'2 3.5
2017-Jun-20 13:00N 46°06' W 002°36'2 3.3
2017-Jun-20 12:15N 46°08' W 002°39'1 3.4
2017-Jun-20 12:01N 46°07' W 002°38'2 4.0
2017-Jun-20 11:30N 46°05' W 002°38'1 1.1
2017-Jun-20 10:27N 46°06' W 002°39'2 4.1
2017-Jun-20 09:51N 46°08' W 002°42'2 4.2
2017-Jun-20 09:22N 46°09' W 002°44'1 2.8
2017-Jun-20 08:56N 46°09' W 002°46'2 3.9
2017-Jun-20 08:27N 46°07' W 002°44'2 3.9
2017-Jun-20 08:00N 46°06' W 002°41'1 1.6
2017-Jun-20 07:24N 46°06' W 002°40'5 3.8
2017-Jun-20 06:09N 46°09' W 002°46'1 3.5
2017-Jun-20 05:51N 46°09' W 002°44'1 4.1
2017-Jun-20 05:31N 46°08' W 002°42'2 4.0
2017-Jun-20 05:00N 46°06' W 002°41'2 3.8
2017-Jun-20 04:30N 46°06' W 002°38'18 5.7
2017-Jun-20 01:19N 46°16' W 002°16'3 8.7
2017-Jun-20 01:01N 46°18' W 002°13'4 8.6
2017-Jun-20 00:31N 46°20' W 002°08'4 8.2
2017-Jun-20 00:00N 46°22' W 002°02'4 8.1
2017-Jun-19 23:31N 46°24' W 001°58'4 8.1
2017-Jun-19 23:00N 46°26' W 001°52'4 8.3
2017-Jun-19 22:30N 46°28' W 001°47'1 2.8
2017-Jun-19 22:00N 46°30' W 001°47'0 0.1
2017-Jun-19 21:30N 46°30' W 001°48'3 5.2
2017-Jun-19 21:01N 46°28' W 001°49'5 9.0
2017-Jun-19 20:31N 46°25' W 001°55'5 9.0
2017-Jun-19 20:00N 46°23' W 002°00'5 8.8
2017-Jun-19 19:28N 46°20' W 002°06'22 7.5
2017-Jun-19 16:33N 46°08' W 002°33'1 0.8
2017-Jun-19 14:46N 46°10' W 002°33'8 1.3
2017-Jun-19 08:35N 46°04' W 002°25'0 4.2
2017-Jun-19 08:28N 46°04' W 002°25'1 1.9
2017-Jun-19 07:49N 46°03' W 002°24'1 4.3
2017-Jun-19 07:30N 46°03' W 002°22'62 3.7
2017-Jun-18 14:48N 47°03' W 002°44'7 9.3
2017-Jun-18 14:00N 47°10' W 002°39'5 9.4
2017-Jun-18 13:30N 47°14' W 002°37'5 9.0
2017-Jun-18 13:00N 47°18' W 002°33'2 3.5
2017-Jun-18 12:29N 47°18' W 002°31'0 0.0
2017-Jun-18 06:14N 47°18' W 002°31'0 0.0
2017-Jun-18 05:59N 47°18' W 002°31'0 0.0
2017-Jun-18 05:30N 47°18' W 002°31'0 0.0
2017-Jun-18 05:00N 47°18' W 002°31'0 0.0
2017-Jun-18 04:30N 47°18' W 002°31'0 0.0
2017-Jun-18 03:41N 47°18' W 002°31'0 0.0
2017-Jun-18 03:26N 47°18' W 002°31'0 0.0
2017-Jun-18 03:00N 47°18' W 002°31'0 0.0
2017-Jun-18 02:30N 47°18' W 002°31'1 1.7
2017-Jun-18 02:00N 47°19' W 002°31'5 8.0
2017-Jun-18 01:23N 47°15' W 002°36'65 3.0
2017-Jun-17 03:34N 46°10' W 002°29'1 2.5
2017-Jun-17 03:17N 46°10' W 002°30'12 5.5
2017-Jun-17 01:10N 46°16' W 002°16'1 8.6
2017-Jun-17 01:01N 46°17' W 002°14'4 8.6
2017-Jun-17 00:30N 46°19' W 002°09'4 8.7
2017-Jun-17 00:01N 46°21' W 002°04'4 8.4
2017-Jun-16 23:31N 46°23' W 001°58'4 8.5
2017-Jun-16 23:01N 46°25' W 001°53'4 8.0
2017-Jun-16 22:31N 46°28' W 001°49'  
Track history (hours):
 
Tides and Currents Weather Stations Pressure Air Temp Water Temp Dewpoint Dewpoint Depression Visibility Wind Speed Wind Dir Waves Ship Positions

F/V Moorea

Last reported at 2017-Jun-26 22:30 UTC. Time now 2017-Jun-27 05:18 UTC.
Position N 46°50' W 003°36'.

Length 18 m.

Type: Fishing. MMSI: 228239900.

Date/timePositionNaut miles runAvg speedWind from/ knotsBaromVisibWave heightAir tempDewpointWater temp
2017-Jun-26 22:30N 46°50' W 003°36'2 3.5
2017-Jun-26 22:00N 46°51' W 003°34'2 3.8
2017-Jun-26 21:30N 46°50' W 003°32'2 4.4
2017-Jun-26 21:00N 46°50' W 003°29'2 3.9
2017-Jun-26 20:30N 46°50' W 003°26'2 4.1
2017-Jun-26 20:00N 46°50' W 003°23'1 2.8
2017-Jun-26 19:30N 46°50' W 003°21'2 4.2
2017-Jun-26 18:55N 46°52' W 003°22'2 2.0
2017-Jun-26 17:41N 46°51' W 003°19'7 3.5
2017-Jun-26 15:34N 46°58' W 003°23'0 4.5
2017-Jun-26 15:31N 46°58' W 003°23'3 0.5
2017-Jun-26 08:27N 46°55' W 003°22'3 1.6
2017-Jun-26 06:53N 46°52' W 003°22'2 4.1
2017-Jun-26 06:21N 46°52' W 003°19'6 8.6
2017-Jun-26 05:37N 46°55' W 003°11'1 9.5
2017-Jun-26 05:29N 46°56' W 003°10'5 9.5
2017-Jun-26 04:59N 46°59' W 003°04'5 9.4
2017-Jun-26 04:30N 47°02' W 002°59'6 9.0
2017-Jun-26 03:54N 47°06' W 002°53'4 9.0
2017-Jun-26 03:27N 47°08' W 002°49'4 9.1
2017-Jun-26 03:00N 47°11' W 002°44'4 8.5
2017-Jun-26 02:29N 47°14' W 002°39'5 9.0
2017-Jun-26 01:59N 47°17' W 002°35'3 5.5
2017-Jun-26 01:26N 47°18' W 002°31'0 0.0
2017-Jun-24 01:48N 47°18' W 002°31'0 0.0
2017-Jun-24 01:27N 47°18' W 002°31'66 4.5
2017-Jun-23 10:46N 46°13' W 002°47'2 1.1
2017-Jun-23 08:52N 46°11' W 002°47'1 3.7
2017-Jun-23 08:29N 46°12' W 002°46'2 2.2
2017-Jun-23 07:23N 46°11' W 002°49'1 3.7
2017-Jun-23 07:00N 46°12' W 002°48'3 4.2
2017-Jun-23 06:20N 46°14' W 002°46'2 4.4
2017-Jun-23 05:52N 46°15' W 002°43'3 3.4
2017-Jun-23 05:00N 46°18' W 002°42'2 3.4
2017-Jun-23 04:23N 46°20' W 002°41'18 7.4
2017-Jun-23 01:57N 46°24' W 002°15'4 8.4
2017-Jun-23 01:30N 46°25' W 002°10'4 8.1
2017-Jun-23 00:59N 46°26' W 002°04'4 8.2
2017-Jun-23 00:31N 46°27' W 001°59'4 8.2
2017-Jun-23 00:00N 46°28' W 001°53'4 8.1
2017-Jun-22 23:30N 46°29' W 001°47'1 2.6
2017-Jun-22 23:01N 46°30' W 001°48'0 0.0
2017-Jun-22 22:30N 46°30' W 001°48'2 3.7
2017-Jun-22 22:01N 46°28' W 001°49'5 9.3
2017-Jun-22 21:30N 46°27' W 001°56'7 9.3
2017-Jun-22 20:48N 46°26' W 002°05'6 9.1
2017-Jun-22 20:09N 46°25' W 002°13'26 3.4
2017-Jun-22 12:23N 46°12' W 002°46'2 1.9
2017-Jun-22 11:25N 46°12' W 002°49'1 2.1
2017-Jun-22 10:57N 46°12' W 002°48'2 3.8
2017-Jun-22 10:25N 46°10' W 002°49'2 3.4
2017-Jun-22 09:56N 46°12' W 002°47'2 3.7
2017-Jun-22 09:30N 46°13' W 002°46'2 3.8
2017-Jun-22 08:59N 46°13' W 002°43'2 3.8
2017-Jun-22 08:28N 46°12' W 002°41'2 2.3
2017-Jun-22 07:31N 46°10' W 002°43'0 3.9
2017-Jun-22 07:26N 46°09' W 002°43'1 3.5
2017-Jun-22 07:00N 46°08' W 002°42'2 4.0
2017-Jun-22 06:28N 46°06' W 002°40'2 4.0
2017-Jun-22 06:00N 46°05' W 002°38'2 4.1
2017-Jun-22 05:29N 46°04' W 002°36'1 3.0
2017-Jun-22 05:00N 46°04' W 002°34'3 4.0
2017-Jun-22 04:12N 46°07' W 002°35'1 4.0
2017-Jun-22 03:54N 46°08' W 002°36'1 2.7
2017-Jun-22 03:30N 46°08' W 002°35'3 6.1
2017-Jun-22 03:00N 46°10' W 002°31'4 8.7
2017-Jun-22 02:30N 46°12' W 002°26'4 8.8
2017-Jun-22 02:00N 46°14' W 002°21'4 8.7
2017-Jun-22 01:30N 46°17' W 002°15'4 8.7
2017-Jun-22 01:00N 46°19' W 002°10'4 8.5
2017-Jun-22 00:30N 46°21' W 002°05'4 8.4
2017-Jun-22 00:01N 46°23' W 001°60'4 8.3
2017-Jun-21 23:30N 46°26' W 001°54'4 8.3
2017-Jun-21 23:00N 46°28' W 001°49'2 4.9
2017-Jun-21 22:31N 46°30' W 001°47'0 0.0
2017-Jun-21 22:00N 46°30' W 001°47'0 0.1
2017-Jun-21 21:30N 46°30' W 001°48'3 6.9
2017-Jun-21 21:00N 46°27' W 001°50'5 9.5
2017-Jun-21 20:31N 46°24' W 001°56'5 9.0
2017-Jun-21 20:00N 46°22' W 002°01'5 9.0
2017-Jun-21 19:29N 46°19' W 002°07'5 9.0
2017-Jun-21 18:57N 46°17' W 002°13'4 8.9
2017-Jun-21 18:29N 46°15' W 002°18'4 8.6
2017-Jun-21 18:00N 46°13' W 002°23'4 8.3
2017-Jun-21 17:31N 46°11' W 002°29'2 3.6
2017-Jun-21 17:00N 46°09' W 002°30'2 3.7
2017-Jun-21 16:30N 46°07' W 002°30'3 3.1
2017-Jun-21 15:24N 46°07' W 002°35'3 3.8
2017-Jun-21 14:41N 46°08' W 002°39'1 2.9
2017-Jun-21 14:27N 46°08' W 002°38'3 1.7
2017-Jun-21 12:47N 46°05' W 002°38'4 4.0
2017-Jun-21 11:52N 46°08' W 002°42'2 4.2
2017-Jun-21 11:22N 46°09' W 002°44'0 1.3
2017-Jun-21 11:00N 46°09' W 002°43'2 3.9
2017-Jun-21 10:29N 46°07' W 002°42'2 4.0
2017-Jun-21 10:00N 46°06' W 002°40'2 3.7
2017-Jun-21 09:28N 46°06' W 002°37'2 3.3
2017-Jun-21 08:59N 46°07' W 002°35'4 4.1
2017-Jun-21 08:06N 46°09' W 002°39'0 2.8
2017-Jun-21 07:58N 46°09' W 002°39'0 0.5
2017-Jun-21 07:13N 46°09' W 002°39'1 3.8
2017-Jun-21 07:00N 46°10' W 002°40'2 3.8
2017-Jun-21 06:30N 46°10' W 002°42'1 2.3
2017-Jun-21 05:59N 46°09' W 002°42'2 4.0
2017-Jun-21 05:25N 46°08' W 002°39'2 4.0
2017-Jun-21 05:00N 46°07' W 002°37'2 3.3
2017-Jun-21 04:30N 46°06' W 002°35'2 3.5
2017-Jun-21 03:49N 46°08' W 002°38'1 3.2
2017-Jun-21 03:30N 46°08' W 002°36'2 4.0
2017-Jun-21 03:00N 46°06' W 002°35'2 2.8
2017-Jun-21 02:16N 46°06' W 002°38'1 4.0
2017-Jun-21 02:00N 46°07' W 002°39'2 3.9
2017-Jun-21 01:30N 46°08' W 002°42'3 3.5
2017-Jun-21 00:45N 46°09' W 002°45'1 3.8
2017-Jun-21 00:31N 46°09' W 002°46'2 3.9
2017-Jun-21 00:00N 46°07' W 002°44'2 4.0
2017-Jun-20 23:30N 46°06' W 002°41'1 1.7
2017-Jun-20 23:00N 46°06' W 002°40'2 4.0
2017-Jun-20 22:30N 46°07' W 002°43'2 4.0
2017-Jun-20 21:56N 46°08' W 002°45'1 2.0
2017-Jun-20 21:29N 46°09' W 002°45'2 3.9
2017-Jun-20 21:01N 46°08' W 002°42'2 3.9
2017-Jun-20 20:31N 46°06' W 002°40'2 3.6
2017-Jun-20 20:00N 46°06' W 002°38'2 3.9
2017-Jun-20 19:30N 46°06' W 002°35'2 3.5
2017-Jun-20 18:59N 46°08' W 002°37'2 4.1
2017-Jun-20 18:31N 46°08' W 002°39'2 3.8
2017-Jun-20 17:56N 46°09' W 002°42'1 3.0
2017-Jun-20 17:30N 46°09' W 002°44'2 4.1
2017-Jun-20 17:00N 46°08' W 002°42'2 4.1
2017-Jun-20 16:31N 46°06' W 002°40'2 3.3
2017-Jun-20 16:00N 46°07' W 002°38'2 3.9
2017-Jun-20 15:30N 46°08' W 002°40'2 3.9
2017-Jun-20 14:59N 46°09' W 002°42'1 1.4
2017-Jun-20 14:30N 46°10' W 002°42'4 3.9
2017-Jun-20 13:30N 46°07' W 002°39'2 3.5
2017-Jun-20 13:00N 46°06' W 002°36'2 3.3
2017-Jun-20 12:15N 46°08' W 002°39'1 3.4
2017-Jun-20 12:01N 46°07' W 002°38'2 4.0
2017-Jun-20 11:30N 46°05' W 002°38'1 1.1
2017-Jun-20 10:27N 46°06' W 002°39'2 4.1
2017-Jun-20 09:51N 46°08' W 002°42'2 4.2
2017-Jun-20 09:22N 46°09' W 002°44'1 2.8
2017-Jun-20 08:56N 46°09' W 002°46'2 3.9
2017-Jun-20 08:27N 46°07' W 002°44'2 3.9
2017-Jun-20 08:00N 46°06' W 002°41'1 1.6
2017-Jun-20 07:24N 46°06' W 002°40'5 3.8
2017-Jun-20 06:09N 46°09' W 002°46'1 3.5
2017-Jun-20 05:51N 46°09' W 002°44'1 4.1
2017-Jun-20 05:31N 46°08' W 002°42'2 4.0
2017-Jun-20 05:00N 46°06' W 002°41'2 3.8
2017-Jun-20 04:30N 46°06' W 002°38'18 5.7
2017-Jun-20 01:19N 46°16' W 002°16'3 8.7
2017-Jun-20 01:01N 46°18' W 002°13'4 8.6
2017-Jun-20 00:31N 46°20' W 002°08'4 8.2
2017-Jun-20 00:00N 46°22' W 002°02'4 8.1
2017-Jun-19 23:31N 46°24' W 001°58'4 8.1
2017-Jun-19 23:00N 46°26' W 001°52'4 8.3
2017-Jun-19 22:30N 46°28' W 001°47'1 2.8
2017-Jun-19 22:00N 46°30' W 001°47'0 0.1
2017-Jun-19 21:30N 46°30' W 001°48'3 5.2
2017-Jun-19 21:01N 46°28' W 001°49'5 9.0
2017-Jun-19 20:31N 46°25' W 001°55'5 9.0
2017-Jun-19 20:00N 46°23' W 002°00'5 8.8
2017-Jun-19 19:28N 46°20' W 002°06'22 7.5
2017-Jun-19 16:33N 46°08' W 002°33'1 0.8
2017-Jun-19 14:46N 46°10' W 002°33'8 1.3
2017-Jun-19 08:35N 46°04' W 002°25'0 4.2
2017-Jun-19 08:28N 46°04' W 002°25'1 1.9
2017-Jun-19 07:49N 46°03' W 002°24'1 4.3
2017-Jun-19 07:30N 46°03' W 002°22'62 3.7
2017-Jun-18 14:48N 47°03' W 002°44'7 9.3
2017-Jun-18 14:00N 47°10' W 002°39'5 9.4
2017-Jun-18 13:30N 47°14' W 002°37'5 9.0
2017-Jun-18 13:00N 47°18' W 002°33'2 3.5
2017-Jun-18 12:29N 47°18' W 002°31'0 0.0
2017-Jun-18 06:14N 47°18' W 002°31'0 0.0
2017-Jun-18 05:59N 47°18' W 002°31'0 0.0
2017-Jun-18 05:30N 47°18' W 002°31'0 0.0
2017-Jun-18 05:00N 47°18' W 002°31'0 0.0
2017-Jun-18 04:30N 47°18' W 002°31'0 0.0
2017-Jun-18 03:41N 47°18' W 002°31'0 0.0
2017-Jun-18 03:26N 47°18' W 002°31'0 0.0
2017-Jun-18 03:00N 47°18' W 002°31'0 0.0
2017-Jun-18 02:30N 47°18' W 002°31'1 1.7
2017-Jun-18 02:00N 47°19' W 002°31'5 8.0
2017-Jun-18 01:23N 47°15' W 002°36'65 3.0
2017-Jun-17 03:34N 46°10' W 002°29'1 2.5
2017-Jun-17 03:17N 46°10' W 002°30'12 5.5
2017-Jun-17 01:10N 46°16' W 002°16'1 8.6
2017-Jun-17 01:01N 46°17' W 002°14'4 8.6
2017-Jun-17 00:30N 46°19' W 002°09'4 8.7
2017-Jun-17 00:01N 46°21' W 002°04'4 8.4
2017-Jun-16 23:31N 46°23' W 001°58'4 8.5
2017-Jun-16 23:01N 46°25' W 001°53'4 8.0
2017-Jun-16 22:31N 46°28' W 001°49'  

Dump ship's entire track history